Terminal Aerodrome Forecast
Issued by NWS Binghamton, NY

Home | Current Version | Previous Version | Text Only | Print | Product List | Glossary On
Versions: 1 2 3 4 5 6 7 8 9 10 11 12 13 14 15 16 17 18 19 20 21 22 23
724
FTUS41 KBGM 102348 RRA
TAFBGM
TAF
KBGM 102348Z 1100/1124 28005KT P6SM -SN BKN035 OVC050
     FM110500 25005KT P6SM SCT035 OVC050
     FM111400 18008KT P6SM OVC028
     FM111800 18008KT P6SM -SN OVC015
     FM112000 17008KT 2SM -SN OVC009
      TEMPO 1120/1124 1SM -SN=

USA.gov is the U.S. government's official web portal to all federal, state and local government web resources and services.